Time;durP1;ratioP1;P1;durP2;ratioP2;P2;SDS_P1;SDS_P2;PMS_P1;PMS_P2;Temp;Humidity;BMP_temperature;BMP_pressure;BME280_temperature;BME280_humidity;BME280_pressure;Samples;Min_cycle;Max_cycle;Signal;HPM_P1;HPM_P2
2022/11/19 00:01:27;;;;;;;31.83;14.32;;;;;;;-1.41;81.65;98741.06;8376165;28;20064;-77
2022/11/19 00:05:27;;;;;;;35.58;15.73;;;;;;;-1.39;81.98;98741.63;8386664;28;20456;-77
2022/11/19 00:09:28;;;;;;;32.90;14.88;;;;;;;-1.46;82.25;98748.94;8429369;28;20522;-77
2022/11/19 00:13:29;;;;;;;30.92;14.25;;;;;;;-1.43;82.29;98748.44;8427508;28;20131;-77
2022/11/19 00:17:30;;;;;;;33.10;15.32;;;;;;;-1.41;82.71;98751.66;8427837;28;20465;-77
2022/11/19 00:21:31;;;;;;;35.03;14.65;;;;;;;-1.40;82.43;98758.56;8421375;28;20044;-76
2022/11/19 00:25:32;;;;;;;32.80;14.75;;;;;;;-1.40;82.55;98758.56;8426100;28;20045;-77
2022/11/19 00:29:33;;;;;;;33.40;14.77;;;;;;;-1.43;82.28;98759.03;8410781;28;20059;-77
2022/11/19 00:33:35;;;;;;;30.73;15.02;;;;;;;-1.43;82.21;98766.19;8372899;28;20052;-77
2022/11/19 00:37:36;;;;;;;32.05;15.43;;;;;;;-1.46;82.47;98759.53;8409656;28;20071;-77
2022/11/19 00:41:37;;;;;;;32.55;14.55;;;;;;;-1.45;82.80;98766.44;8428564;28;20052;-77
2022/11/19 00:45:38;;;;;;;30.55;15.25;;;;;;;-1.44;82.71;98761.94;8427815;28;20055;-77
2022/11/19 00:49:39;;;;;;;34.85;15.57;;;;;;;-1.44;82.94;98760.09;8423801;28;20052;-77
2022/11/19 00:53:40;;;;;;;33.53;16.25;;;;;;;-1.43;82.90;98764.31;8369868;28;20611;-77
2022/11/19 00:57:41;;;;;;;38.17;15.95;;;;;;;-1.43;82.72;98764.31;8428591;28;20047;-77
2022/11/19 01:01:41;;;;;;;35.28;15.88;;;;;;;-1.44;83.34;98773.34;8427126;28;20052;-77
2022/11/19 01:05:42;;;;;;;31.52;15.35;;;;;;;-1.45;83.14;98782.31;8423047;28;20055;-77
2022/11/19 01:09:44;;;;;;;30.90;15.15;;;;;;;-1.49;83.03;98783.84;8427270;28;20502;-77
2022/11/19 01:13:46;;;;;;;32.47;14.90;;;;;;;-1.50;83.44;98789.38;8427063;28;20063;-77
2022/11/19 01:17:47;;;;;;;33.42;15.50;;;;;;;-1.50;83.29;98784.88;8427082;28;20048;-77
2022/11/19 01:21:48;;;;;;;33.78;14.93;;;;;;;-1.48;83.44;98788.06;8425485;28;20047;-77
2022/11/19 01:25:49;;;;;;;34.28;15.15;;;;;;;-1.47;83.63;98789.69;8422835;28;20480;-77
2022/11/19 01:29:50;;;;;;;34.28;15.40;;;;;;;-1.50;83.59;98782.22;8424247;28;20044;-77
2022/11/19 01:33:51;;;;;;;34.95;15.20;;;;;;;-1.48;83.75;98788.06;8424924;28;20056;-77
2022/11/19 01:37:52;;;;;;;34.05;15.63;;;;;;;-1.52;83.93;98786.16;8425167;28;20070;-77
2022/11/19 01:41:53;;;;;;;34.00;15.85;;;;;;;-1.54;83.39;98783.75;8425398;28;20136;-76
2022/11/19 01:45:54;;;;;;;34.78;15.07;;;;;;;-1.50;83.38;98784.06;8425684;28;20097;-77
2022/11/19 01:49:55;;;;;;;31.00;15.10;;;;;;;-1.51;83.57;98783.28;8424464;28;20040;-77
2022/11/19 01:53:59;;;;;;;29.60;14.00;;;;;;;-1.59;83.74;98785.50;8364445;28;20529;-77
2022/11/19 01:58:01;;;;;;;27.33;13.43;;;;;;;-1.65;83.38;98789.91;8411066;28;20052;-77
2022/11/19 02:02:02;;;;;;;27.02;13.82;;;;;;;-1.72;83.60;98794.53;8403978;28;20048;-77
2022/11/19 02:06:03;;;;;;;31.67;14.00;;;;;;;-1.76;83.52;98796.06;8405505;28;20044;-77
2022/11/19 02:10:05;;;;;;;29.88;14.55;;;;;;;-1.76;84.04;98796.06;8425081;28;20054;-77
2022/11/19 02:14:35;;;;;;;28.55;14.10;;;;;;;-1.83;83.76;98784.78;8422378;28;20055;-77
2022/11/19 02:18:58;;;;;;;32.38;14.10;;;;;;;-1.94;83.62;98788.28;8423833;28;20056;-77
2022/11/19 02:23:15;;;;;;;27.00;12.27;;;;;;;-2.15;84.17;98803.75;8402025;28;20052;-77
2022/11/19 02:27:42;;;;;;;31.20;13.90;;;;;;;-2.21;84.46;98810.00;8402584;28;20044;-77
2022/11/19 02:32:07;;;;;;;32.17;14.25;;;;;;;-2.31;84.69;98808.97;8423410;28;20082;-77
2022/11/19 02:36:28;;;;;;;26.80;13.55;;;;;;;-2.45;85.10;98807.63;8425342;28;20036;-77
2022/11/19 02:40:37;;;;;;;26.60;12.57;;;;;;;-2.61;85.63;98809.94;8428254;28;20048;-76
2022/11/19 02:45:01;;;;;;;29.45;13.75;;;;;;;-2.65;85.81;98823.84;8405879;28;20439;-77
2022/11/19 02:49:02;;;;;;;28.70;13.90;;;;;;;-2.69;86.34;98827.97;8431049;28;20044;-76
2022/11/19 02:53:03;;;;;;;26.65;12.68;;;;;;;-2.66;86.35;98830.16;8408922;28;20508;-77
2022/11/19 02:57:04;;;;;;;28.98;13.18;;;;;;;-2.58;86.10;98830.59;8425457;28;20041;-76
2022/11/19 03:05:30;;;;;;;26.70;13.10;;;;;;;-2.43;86.04;98827.50;8404428;28;20044;-76
2022/11/19 03:09:33;;;;;;;26.98;13.23;;;;;;;-2.44;86.22;98831.19;8430999;28;20052;-77
2022/11/19 03:18:26;;;;;;;35.10;14.60;;;;;;;-2.56;86.34;98848.91;8430492;28;20049;-76
2022/11/19 03:22:31;;;;;;;43.83;15.40;;;;;;;-2.62;86.67;98849.81;8426487;28;20055;-76
2022/11/19 03:26:40;;;;;;;38.55;15.32;;;;;;;-2.71;86.94;98861.78;8413100;28;20047;-77
2022/11/19 03:30:43;;;;;;;35.20;14.23;;;;;;;-2.81;87.32;98850.97;8411350;28;20408;-77
2022/11/19 03:34:47;;;;;;;30.67;14.50;;;;;;;-2.89;87.28;98848.63;8412263;28;20051;-77
2022/11/19 03:38:58;;;;;;;29.38;14.45;;;;;;;-3.01;87.19;98857.34;8379156;28;20045;-77
2022/11/19 03:43:01;;;;;;;30.38;13.43;;;;;;;-3.13;87.82;98858.38;8322557;28;20506;-77
2022/11/19 03:47:07;;;;;;;50.30;16.85;;;;;;;-3.22;87.97;98863.16;8307564;28;20041;-77
2022/11/19 03:51:38;;;;;;;48.47;16.58;;;;;;;-3.32;87.76;98865.53;8323901;28;20046;-77
2022/11/19 03:55:56;;;;;;;43.72;16.02;;;;;;;-3.46;87.98;98864.13;8319640;28;20065;-77
2022/11/19 03:59:57;;;;;;;31.33;14.73;;;;;;;-3.56;88.43;98869.13;8306616;28;20041;-76
2022/11/19 04:08:18;;;;;;;28.20;13.73;;;;;;;-3.70;88.72;98872.97;8325837;28;20416;-77
2022/11/19 04:12:22;;;;;;;26.38;13.43;;;;;;;-3.78;88.67;98875.91;8343766;28;20056;-77
2022/11/19 04:16:23;;;;;;;33.72;13.70;;;;;;;-3.88;88.82;98876.44;8396081;28;20036;-77
2022/11/19 04:20:24;;;;;;;44.67;15.48;;;;;;;-4.03;88.77;98873.38;8377087;28;20040;-77
2022/11/19 04:24:25;;;;;;;37.60;14.43;;;;;;;-4.11;89.17;98866.53;8349933;28;20048;-77
2022/11/19 04:28:26;;;;;;;33.28;14.07;;;;;;;-4.17;89.13;98862.16;8324819;28;20224;-77
2022/11/19 04:32:27;;;;;;;30.73;13.35;;;;;;;-4.22;89.32;98869.91;8318101;28;20424;-77
2022/11/19 04:36:28;;;;;;;33.05;13.20;;;;;;;-4.22;89.19;98880.44;8325009;28;20045;-77
2022/11/19 04:40:29;;;;;;;27.77;13.00;;;;;;;-4.31;89.09;98887.03;8324791;28;20076;-77
2022/11/19 04:44:31;;;;;;;30.20;12.73;;;;;;;-4.38;89.01;98896.84;8325812;28;20057;-77
2022/11/19 04:48:32;;;;;;;31.92;13.57;;;;;;;-4.47;88.74;98898.16;8324910;28;20499;-77
2022/11/19 04:52:33;;;;;;;31.23;12.35;;;;;;;-4.55;88.86;98901.06;8325306;28;20053;-77
2022/11/19 04:56:35;;;;;;;35.40;11.88;;;;;;;-4.58;88.87;98896.22;8325023;28;20045;-77
2022/11/19 05:00:36;;;;;;;37.10;14.52;;;;;;;-4.61;88.45;98901.94;8381882;28;20059;-77
2022/11/19 05:04:37;;;;;;;35.70;14.07;;;;;;;-4.70;88.61;98904.81;8393476;28;20487;-77
2022/11/19 05:08:38;;;;;;;31.85;13.25;;;;;;;-4.85;88.87;98912.25;8394216;28;20055;-77
2022/11/19 05:12:39;;;;;;;36.95;13.63;;;;;;;-4.94;88.64;98913.53;8375469;28;20056;-77
2022/11/19 05:16:40;;;;;;;39.40;14.38;;;;;;;-4.97;88.73;98913.94;8395404;28;20036;-77
2022/11/19 05:20:41;;;;;;;45.70;16.15;;;;;;;-4.96;88.69;98910.28;8394320;28;20097;-77
2022/11/19 05:24:42;;;;;;;37.28;15.52;;;;;;;-4.95;88.80;98911.91;8392677;28;20502;-77
2022/11/19 05:28:43;;;;;;;37.88;13.82;;;;;;;-5.09;88.48;98913.03;8383380;28;20071;-77
2022/11/19 05:32:43;;;;;;;31.50;13.30;;;;;;;-5.15;88.69;98911.25;8390675;28;20037;-77
2022/11/19 05:36:45;;;;;;;34.20;14.10;;;;;;;-5.19;88.90;98917.97;8394712;28;20082;-77
2022/11/19 05:40:45;;;;;;;35.33;13.20;;;;;;;-5.30;88.60;98918.63;8426877;28;20078;-77
2022/11/19 05:44:47;;;;;;;34.25;15.07;;;;;;;-5.33;88.59;98924.31;8426759;28;20073;-77
2022/11/19 05:48:48;;;;;;;30.73;14.60;;;;;;;-5.37;88.53;98920.47;8426535;28;20482;-77
2022/11/19 05:52:48;;;;;;;33.25;13.10;;;;;;;-5.47;88.57;98935.91;8373500;28;20062;-77
2022/11/19 05:56:49;;;;;;;33.78;13.93;;;;;;;-5.54;88.39;98954.34;8407839;28;20051;-78
2022/11/19 06:00:54;;;;;;;31.95;12.82;;;;;;;-5.62;88.26;98958.06;8425779;28;20040;-77
2022/11/19 06:04:56;;;;;;;35.03;12.90;;;;;;;-5.67;88.27;98944.72;8423596;28;20048;-77
2022/11/19 06:08:57;;;;;;;31.20;13.38;;;;;;;-5.64;88.18;98960.06;8425969;28;20398;-77
2022/11/19 06:12:58;;;;;;;28.75;12.48;;;;;;;-5.68;88.16;98953.63;8426030;28;20516;-77
2022/11/19 06:17:00;;;;;;;32.35;14.13;;;;;;;-5.68;88.10;98958.88;8432424;28;20044;-77
2022/11/19 06:21:01;;;;;;;40.47;14.00;;;;;;;-5.68;88.05;98969.41;8432455;28;20059;-78
2022/11/19 06:25:03;;;;;;;30.90;13.63;;;;;;;-5.72;87.89;98973.47;8426957;28;20102;-77
2022/11/19 06:29:04;;;;;;;35.15;12.98;;;;;;;-5.76;87.91;98982.75;8432368;28;20482;-77
2022/11/19 06:33:05;;;;;;;29.83;13.55;;;;;;;-5.87;87.59;98978.19;8432154;28;20525;-77
2022/11/19 06:37:07;;;;;;;39.13;14.82;;;;;;;-5.95;87.63;98978.41;8430845;28;20090;-77
2022/11/19 06:41:07;;;;;;;43.90;17.58;;;;;;;-5.91;87.89;98990.13;8431968;28;20131;-77
2022/11/19 06:45:12;;;;;;;44.65;17.40;;;;;;;-5.87;87.77;98985.28;8432025;28;20165;-77
2022/11/19 06:49:13;;;;;;;61.20;23.33;;;;;;;-5.86;88.00;98976.31;8432687;28;20040;-77
2022/11/19 06:53:14;;;;;;;47.50;20.13;;;;;;;-5.80;88.02;98981.56;8396066;28;20052;-77
2022/11/19 06:57:15;;;;;;;50.83;20.80;;;;;;;-5.74;87.79;98980.75;8431793;28;20047;-77
2022/11/19 07:01:16;;;;;;;49.90;19.77;;;;;;;-5.65;87.69;98979.50;8406921;28;20055;-77
2022/11/19 07:05:17;;;;;;;52.38;19.33;;;;;;;-5.58;87.76;98990.81;8431394;28;20131;-77
2022/11/19 07:09:18;;;;;;;50.10;20.58;;;;;;;-5.48;87.90;98994.81;8431184;28;20501;-77
2022/11/19 07:13:19;;;;;;;57.28;25.30;;;;;;;-5.40;87.57;98991.97;8395325;28;20047;-77
2022/11/19 07:17:20;;;;;;;88.70;36.08;;;;;;;-5.30;87.63;98989.69;8431216;28;20052;-77
2022/11/19 07:21:21;;;;;;;93.63;39.22;;;;;;;-5.17;87.71;99002.78;8430726;28;20036;-77
2022/11/19 07:25:22;;;;;;;80.60;31.15;;;;;;;-5.05;87.50;99001.13;8372888;28;20047;-77
2022/11/19 07:29:23;;;;;;;57.00;25.00;;;;;;;-4.94;87.55;98997.81;8426167;28;20538;-77
2022/11/19 07:33:24;;;;;;;54.30;24.02;;;;;;;-4.85;87.64;99001.81;8427597;28;20040;-77
2022/11/19 07:37:25;;;;;;;55.13;25.75;;;;;;;-4.74;87.37;98993.22;8430247;28;20501;-77
2022/11/19 07:45:45;;;;;;;60.42;26.73;;;;;;;-4.55;87.70;98993.31;8430131;28;20040;-77
2022/11/19 07:49:46;;;;;;;46.22;22.52;;;;;;;-4.41;87.72;98992.19;8429755;28;20086;-77
2022/11/19 07:53:48;;;;;;;56.15;26.10;;;;;;;-4.25;87.44;98996.91;8425205;28;20048;-77
2022/11/19 07:57:52;;;;;;;58.25;27.40;;;;;;;-4.12;87.21;98999.44;8429291;28;20048;-77
2022/11/19 08:01:53;;;;;;;73.13;34.35;;;;;;;-3.97;87.83;98999.91;8428846;28;20081;-77
2022/11/19 08:05:54;;;;;;;62.65;28.10;;;;;;;-3.84;88.28;99010.31;8422277;28;20048;-77
2022/11/19 08:09:55;;;;;;;41.45;18.10;;;;;;;-3.73;89.53;99000.06;8429521;28;20082;-77
2022/11/19 08:13:58;;;;;;;78.45;26.42;;;;;;;-3.61;89.35;98998.31;8393346;28;20048;-77
2022/11/19 08:18:11;;;;;;;56.30;21.08;;;;;;;-3.52;88.95;98991.72;8392610;28;20043;-77
2022/11/19 08:22:12;;;;;;;42.75;18.48;;;;;;;-3.39;89.01;99002.16;8428872;28;20040;-77
2022/11/19 08:26:13;;;;;;;63.38;23.20;;;;;;;-3.27;88.69;98997.72;8429808;28;20048;-76
2022/11/19 08:30:14;;;;;;;37.78;16.98;;;;;;;-3.17;88.60;98995.34;8428781;28;20097;-77
2022/11/19 08:34:15;;;;;;;57.85;22.05;;;;;;;-3.07;88.24;98990.34;8428297;28;20036;-77
2022/11/19 08:38:17;;;;;;;42.33;17.40;;;;;;;-2.94;88.07;98977.97;8428955;28;20062;-77
2022/11/19 08:46:38;;;;;;;40.85;17.58;;;;;;;-2.72;87.46;99002.88;8428626;28;20125;-77
2022/11/19 08:50:40;;;;;;;47.28;20.63;;;;;;;-2.62;87.29;99003.13;8423198;28;20045;-77
2022/11/19 08:54:42;;;;;;;50.45;19.70;;;;;;;-2.53;86.87;99007.06;8427932;28;20062;-77
2022/11/19 08:58:42;;;;;;;46.72;18.42;;;;;;;-2.44;86.59;99011.00;8427463;28;20135;-77
2022/11/19 09:02:43;;;;;;;43.63;19.30;;;;;;;-2.38;86.17;99019.88;8426757;28;20539;-77
2022/11/19 09:06:44;;;;;;;43.13;19.98;;;;;;;-2.35;85.82;99020.22;8427609;28;20056;-76
2022/11/19 09:10:45;;;;;;;41.20;16.83;;;;;;;-2.22;85.63;99035.88;8427656;28;20074;-76
2022/11/19 09:14:46;;;;;;;41.75;18.80;;;;;;;-2.04;85.22;99036.81;8427597;28;20502;-76
2022/11/19 09:18:47;;;;;;;56.67;24.52;;;;;;;-1.99;84.68;99044.88;8427774;28;20390;-77
2022/11/19 09:22:48;;;;;;;46.20;18.98;;;;;;;-1.96;84.35;99033.84;8427390;28;20131;-77
2022/11/19 09:26:50;;;;;;;46.17;20.08;;;;;;;-1.85;83.77;99035.69;8427511;28;20052;-76
2022/11/19 09:31:04;;;;;;;46.38;21.13;;;;;;;-1.74;83.78;99034.88;8426400;28;20055;-76
2022/11/19 09:35:06;;;;;;;35.65;16.60;;;;;;;-1.72;82.90;99036.25;8423346;28;20402;-77
2022/11/19 09:39:07;;;;;;;37.13;16.92;;;;;;;-1.60;82.53;99038.91;8376658;28;20048;-76
2022/11/19 09:43:12;;;;;;;38.65;17.23;;;;;;;-1.65;81.61;99041.44;8421045;28;20048;-75
2022/11/19 09:47:38;;;;;;;35.35;16.73;;;;;;;-1.56;81.32;99029.47;8414562;28;20090;-75
2022/11/19 09:51:51;;;;;;;40.38;18.00;;;;;;;-1.45;80.98;99020.69;8343158;28;20045;-76
2022/11/19 09:55:52;;;;;;;39.55;16.65;;;;;;;-1.33;80.74;99018.84;8330181;28;20111;-76
2022/11/19 09:59:56;;;;;;;26.58;13.27;;;;;;;-1.24;79.11;99015.81;8351519;28;20045;-77
2022/11/19 10:03:59;;;;;;;28.70;14.20;;;;;;;-1.20;79.57;99012.47;8325062;28;20137;-77
2022/11/19 10:08:12;;;;;;;29.20;13.50;;;;;;;-1.14;78.52;99005.41;8338714;28;20050;-75
2022/11/19 10:12:49;;;;;;;27.02;12.68;;;;;;;-1.15;77.19;99004.59;8345447;28;20091;-76
2022/11/19 10:16:59;;;;;;;29.85;14.27;;;;;;;-1.05;77.47;99009.28;8342097;28;20794;-76
2022/11/19 10:21:18;;;;;;;31.25;14.90;;;;;;;-0.92;77.57;99014.34;8357009;28;20048;-77
2022/11/19 10:25:27;;;;;;;31.25;14.38;;;;;;;-0.82;77.16;99011.06;8426523;28;20162;-75
2022/11/19 10:29:31;;;;;;;32.03;15.27;;;;;;;-0.80;76.99;99012.44;8408287;28;20064;-75
2022/11/19 10:33:49;;;;;;;29.25;14.13;;;;;;;-0.72;76.21;98998.78;8408515;28;20063;-76
2022/11/19 10:37:59;;;;;;;33.47;14.70;;;;;;;-0.73;75.38;99002.47;8397001;28;20496;-76
2022/11/19 10:42:28;;;;;;;35.13;16.38;;;;;;;-0.72;75.77;98998.78;8373170;28;20105;-76
2022/11/19 10:46:29;;;;;;;33.17;16.17;;;;;;;-0.68;75.71;98997.28;8257831;28;20051;-76
2022/11/19 10:50:30;;;;;;;33.15;15.38;;;;;;;-0.78;75.11;98999.75;8257433;28;20046;-75
2022/11/19 10:54:31;;;;;;;25.65;13.52;;;;;;;-0.78;74.73;98994.44;8257435;28;20137;-75
2022/11/19 10:58:37;;;;;;;28.33;13.68;;;;;;;-0.90;73.28;98986.53;8260858;28;20117;-76
2022/11/19 11:02:44;;;;;;;32.25;14.65;;;;;;;-0.80;72.30;98985.94;8263891;28;20221;-75
2022/11/19 11:06:54;;;;;;;23.58;11.07;;;;;;;-0.74;70.61;98990.25;8239980;28;20050;-75
2022/11/19 11:10:56;;;;;;;25.15;11.85;;;;;;;-0.79;70.26;98995.47;8263118;28;20070;-75
2022/11/19 11:15:00;;;;;;;29.63;13.18;;;;;;;-0.62;71.20;98983.06;8247035;28;20046;-76
2022/11/19 11:19:15;;;;;;;25.35;12.32;;;;;;;-0.34;69.51;98984.06;8262314;28;20093;-76
2022/11/19 11:23:19;;;;;;;26.02;11.88;;;;;;;-0.12;68.58;98976.97;8381687;28;20051;-75
2022/11/19 11:27:24;;;;;;;26.05;13.38;;;;;;;-0.04;68.74;98980.00;8431792;28;20082;-75
2022/11/19 11:31:29;;;;;;;30.83;15.35;;;;;;;0.04;69.03;98965.53;8414150;28;20044;-76
2022/11/19 11:35:35;;;;;;;29.58;13.70;;;;;;;0.12;68.65;98973.06;8430937;28;20048;-76
2022/11/19 11:39:38;;;;;;;31.92;14.98;;;;;;;-0.01;68.14;98957.50;8386909;28;20422;-75
2022/11/19 11:44:00;;;;;;;31.42;14.60;;;;;;;-0.01;68.67;98946.88;8397729;28;20045;-75
2022/11/19 11:48:07;;;;;;;28.23;12.63;;;;;;;-0.01;67.98;98952.19;8396104;28;20052;-76
2022/11/19 11:52:08;;;;;;;26.00;12.82;;;;;;;-0.08;66.69;98959.50;8397687;28;20052;-75
2022/11/19 11:56:09;;;;;;;23.40;11.40;;;;;;;-0.19;65.72;98960.41;8396827;28;20090;-75
2022/11/19 12:00:42;;;;;;;23.80;10.55;;;;;;;-0.15;66.25;98957.00;8396016;28;20123;-75
2022/11/19 12:04:43;;;;;;;15.80;7.10;;;;;;;-0.07;64.64;98964.59;8361588;28;20054;-75
2022/11/19 12:09:12;;;;;;;15.93;7.57;;;;;;;-0.01;63.67;98957.50;8396591;28;20063;-76
2022/11/19 12:13:35;;;;;;;17.42;7.90;;;;;;;-0.20;61.60;98953.47;8394591;28;20499;-76
2022/11/19 12:18:00;;;;;;;13.15;6.93;;;;;;;-0.43;62.08;98965.91;8394772;28;20049;-77
2022/11/19 12:22:32;;;;;;;20.55;9.68;;;;;;;-0.20;62.80;98964.09;8376351;28;20048;-76
2022/11/19 12:27:14;;;;;;;19.55;9.63;;;;;;;0.39;61.58;98963.38;8391835;28;20045;-75
2022/11/19 12:31:26;;;;;;;24.58;11.40;;;;;;;1.04;62.82;98949.25;8260842;28;20042;-75
2022/11/19 12:35:45;;;;;;;23.60;12.23;;;;;;;1.39;61.98;98950.63;8244288;28;20054;-76
2022/11/19 12:40:15;;;;;;;27.52;14.18;;;;;;;1.71;61.24;98948.75;8260635;28;20050;-75
2022/11/19 12:44:16;;;;;;;23.75;11.63;;;;;;;1.74;59.09;98948.28;8102581;29;20044;-76
2022/11/19 12:48:56;;;;;;;17.92;8.70;;;;;;;1.52;57.61;98950.22;8102162;29;20063;-75
2022/11/19 12:53:16;;;;;;;17.48;8.80;;;;;;;1.64;56.98;98958.81;8040696;29;20534;-76
2022/11/19 12:57:38;;;;;;;20.35;9.82;;;;;;;1.36;58.00;98951.13;8041564;29;20057;-76
2022/11/19 13:01:42;;;;;;;22.02;11.27;;;;;;;1.61;57.48;98948.69;8046897;29;20098;-76
2022/11/19 13:05:59;;;;;;;25.90;11.95;;;;;;;1.81;58.33;98943.50;8034352;29;20044;-75
2022/11/19 13:10:24;;;;;;;24.92;12.82;;;;;;;2.06;58.66;98941.00;8101646;29;20081;-75
2022/11/19 13:14:44;;;;;;;24.65;12.82;;;;;;;1.99;58.85;98935.13;8101359;29;20570;-76
2022/11/19 13:18:48;;;;;;;20.40;11.48;;;;;;;1.63;58.35;98935.94;8115679;28;20069;-76
2022/11/19 13:22:52;;;;;;;27.48;11.18;;;;;;;1.25;58.29;98929.75;8239680;28;20042;-76
2022/11/19 13:26:56;;;;;;;24.13;11.38;;;;;;;1.05;58.24;98940.22;8257109;28;20050;-75
2022/11/19 13:31:01;;;;;;;22.83;11.40;;;;;;;0.97;58.06;98932.66;8359340;28;20047;-75
2022/11/19 13:35:20;;;;;;;18.63;11.18;;;;;;;0.81;58.55;98933.56;8361650;28;20049;-75
2022/11/19 13:39:31;;;;;;;22.45;11.48;;;;;;;0.84;59.05;98933.88;8395999;28;20052;-75
2022/11/19 13:48:19;;;;;;;15.02;8.20;;;;;;;0.62;58.30;98935.75;8412122;28;20048;-75
2022/11/19 13:52:25;;;;;;;19.05;8.75;;;;;;;0.57;57.72;98932.22;8407681;28;20101;-76
2022/11/19 13:56:37;;;;;;;18.48;9.35;;;;;;;0.56;57.61;98922.66;8401906;28;20055;-75
2022/11/19 14:00:39;;;;;;;23.05;10.35;;;;;;;0.49;57.82;98924.69;8426396;28;20040;-75
2022/11/19 14:04:56;;;;;;;27.38;11.70;;;;;;;0.57;58.81;98926.91;8401956;28;20045;-75
2022/11/19 14:09:11;;;;;;;26.77;12.95;;;;;;;0.37;59.18;98925.59;8403713;28;20047;-75
2022/11/19 14:14:00;;;;;;;26.08;11.80;;;;;;;0.25;60.46;98930.25;8412530;28;20059;-75
2022/11/19 14:27:18;;;;;;;22.55;10.38;;;;;;;-0.13;59.64;98938.19;8262789;28;20085;-76
2022/11/19 14:31:19;;;;;;;23.45;11.15;;;;;;;-0.24;61.22;98923.16;8258831;28;20421;-75
2022/11/19 14:35:29;;;;;;;25.55;11.82;;;;;;;-0.43;61.72;98939.38;8264903;28;20066;-75
2022/11/19 14:39:32;;;;;;;25.55;12.98;;;;;;;-0.65;64.13;98935.00;8268326;28;20054;-75
2022/11/19 14:48:08;;;;;;;28.77;13.27;;;;;;;-0.79;66.05;98929.19;8351841;28;20053;-76
2022/11/19 14:52:22;;;;;;;26.90;11.95;;;;;;;-0.89;65.84;98923.72;8412858;28;20520;-76
2022/11/19 14:56:23;;;;;;;30.38;13.52;;;;;;;-0.98;66.57;98930.44;8383904;28;20056;-75
2022/11/19 15:00:27;;;;;;;32.22;13.20;;;;;;;-1.12;67.51;98924.66;8379905;28;20491;-75
2022/11/19 15:04:38;;;;;;;28.55;12.65;;;;;;;-1.29;68.33;98924.59;8425933;28;20055;-75
2022/11/19 15:08:49;;;;;;;38.63;14.57;;;;;;;-1.43;69.22;98923.25;8431222;28;20063;-76
2022/11/19 15:13:16;;;;;;;31.15;14.32;;;;;;;-1.46;68.98;98923.72;8431776;28;21088;-75
2022/11/19 15:17:17;;;;;;;30.92;14.55;;;;;;;-1.60;69.89;98922.41;8431074;28;20051;-75
2022/11/19 15:21:30;;;;;;;35.63;15.70;;;;;;;-1.65;70.31;98919.66;8379701;28;20040;-76
2022/11/19 15:25:33;;;;;;;40.72;16.02;;;;;;;-1.73;70.70;98917.34;8431823;28;20117;-75
2022/11/19 15:29:55;;;;;;;34.33;16.05;;;;;;;-1.84;71.98;98923.47;8431727;28;20052;-76
2022/11/19 15:34:21;;;;;;;39.45;16.35;;;;;;;-1.93;72.53;98914.28;8396854;28;20045;-75
2022/11/19 15:38:22;;;;;;;41.58;17.10;;;;;;;-1.95;72.50;98919.00;8320464;28;20041;-76
2022/11/19 15:42:33;;;;;;;40.65;17.10;;;;;;;-1.97;72.39;98905.22;8326835;28;20038;-75
2022/11/19 15:46:47;;;;;;;38.92;16.83;;;;;;;-2.10;73.05;98898.31;8309792;28;20088;-77
2022/11/19 15:50:48;;;;;;;73.13;26.60;;;;;;;-2.18;73.64;98894.19;8253673;28;20051;-76
2022/11/19 15:54:50;;;;;;;37.55;16.75;;;;;;;-2.18;72.81;98896.84;8241632;28;20066;-76
2022/11/19 15:58:51;;;;;;;54.65;23.10;;;;;;;-2.25;73.22;98898.78;8261733;28;20051;-75
2022/11/19 16:02:52;;;;;;;40.78;17.17;;;;;;;-2.29;73.51;98902.94;8196501;28;20059;-76
2022/11/19 16:06:54;;;;;;;38.15;17.30;;;;;;;-2.34;73.49;98900.19;8202717;28;20159;-77
2022/11/19 16:20:08;;;;;;;60.55;24.02;;;;;;;-2.41;74.58;98925.94;8240249;28;20060;-76
2022/11/19 16:28:34;;;;;;;64.07;24.80;;;;;;;-2.27;74.45;98922.00;8326309;28;20510;-75
2022/11/19 16:32:35;;;;;;;74.25;26.88;;;;;;;-2.24;74.68;98920.75;8363945;28;20135;-75
2022/11/19 16:36:36;;;;;;;73.90;26.98;;;;;;;-2.17;74.48;98916.94;8411422;28;20051;-76
2022/11/19 16:45:10;;;;;;;51.25;21.30;;;;;;;-2.04;74.28;98909.81;8412827;28;20036;-75
2022/11/19 16:49:29;;;;;;;54.92;21.58;;;;;;;-2.07;74.34;98910.28;8320545;28;20046;-75
2022/11/19 16:53:44;;;;;;;63.45;25.52;;;;;;;-2.10;74.90;98916.03;8309991;28;20061;-76
2022/11/19 16:57:46;;;;;;;51.78;20.98;;;;;;;-2.13;74.79;98917.31;8325027;28;20053;-76
2022/11/19 17:01:55;;;;;;;50.97;20.45;;;;;;;-2.21;74.91;98907.88;8324439;28;20045;-76
2022/11/19 17:05:57;;;;;;;50.50;21.98;;;;;;;-2.25;74.88;98914.66;8324805;28;20509;-76
2022/11/19 17:10:33;;;;;;;56.50;22.48;;;;;;;-2.34;75.77;98915.25;8325366;28;20051;-75
2022/11/19 17:14:34;;;;;;;60.28;24.60;;;;;;;-2.42;75.95;98908.44;8308622;28;20053;-76
2022/11/19 17:18:35;;;;;;;64.25;25.80;;;;;;;-2.46;76.86;98907.28;8354541;28;20070;-75
2022/11/19 17:22:38;;;;;;;54.13;24.15;;;;;;;-2.48;77.16;98901.41;8392358;28;20044;-76
2022/11/19 17:26:46;;;;;;;52.53;22.23;;;;;;;-2.49;77.06;98913.06;8394628;28;20052;-76
2022/11/19 17:30:48;;;;;;;51.60;22.67;;;;;;;-2.41;77.12;98912.69;8427701;28;20097;-76
2022/11/19 17:34:53;;;;;;;60.65;23.92;;;;;;;-2.39;76.51;98902.72;8408787;28;20047;-75
2022/11/19 17:38:55;;;;;;;65.50;23.88;;;;;;;-2.37;77.31;98911.19;8425694;28;20430;-76
2022/11/19 17:47:19;;;;;;;52.83;22.27;;;;;;;-2.33;76.95;98922.16;8411352;28;20055;-75
2022/11/19 17:51:22;;;;;;;50.45;19.80;;;;;;;-2.32;76.95;98924.53;8405598;28;20135;-75
2022/11/19 17:55:24;;;;;;;51.95;20.83;;;;;;;-2.32;76.87;98929.81;8413435;28;20051;-76
2022/11/19 17:59:25;;;;;;;50.83;21.23;;;;;;;-2.29;77.13;98929.38;8426738;28;20048;-75
2022/11/19 18:03:26;;;;;;;48.00;20.85;;;;;;;-2.28;76.90;98931.00;8426268;28;20386;-76
2022/11/19 18:07:27;;;;;;;52.42;20.38;;;;;;;-2.25;76.91;98930.53;8426605;28;20067;-75
2022/11/19 18:11:28;;;;;;;49.00;20.85;;;;;;;-2.22;76.97;98951.22;8378466;28;20059;-75
2022/11/19 18:15:29;;;;;;;49.28;20.42;;;;;;;-2.26;77.16;98944.78;8409150;28;20106;-76
2022/11/19 18:19:30;;;;;;;55.78;22.02;;;;;;;-2.22;77.81;98945.16;8408455;28;20048;-76
2022/11/19 18:23:31;;;;;;;56.72;20.90;;;;;;;-2.29;77.83;98945.25;8426185;28;20040;-75
2022/11/19 18:27:32;;;;;;;51.42;21.98;;;;;;;-2.32;77.49;98943.06;8423799;28;20044;-76
2022/11/19 18:31:47;;;;;;;62.70;24.52;;;;;;;-2.39;78.08;98941.56;8398756;28;20126;-76
2022/11/19 18:35:48;;;;;;;59.47;24.65;;;;;;;-2.40;78.16;98948.69;8413535;28;20039;-76
2022/11/19 18:39:51;;;;;;;68.78;25.95;;;;;;;-2.36;77.94;98933.97;8357822;28;20076;-76
2022/11/19 18:48:11;;;;;;;69.15;26.00;;;;;;;-2.36;78.67;98941.91;8366418;28;20048;-76
2022/11/19 18:52:16;;;;;;;62.08;24.05;;;;;;;-2.37;78.96;98942.94;8366458;28;20044;-76
2022/11/19 18:56:18;;;;;;;91.60;30.60;;;;;;;-2.34;78.66;98958.38;8393351;28;20090;-76
2022/11/19 19:00:19;;;;;;;79.90;27.05;;;;;;;-2.31;79.15;98960.53;8383075;28;20040;-76
2022/11/19 19:04:21;;;;;;;72.90;27.17;;;;;;;-2.31;79.10;98968.47;8392941;28;20129;-76
2022/11/19 19:08:22;;;;;;;71.68;28.25;;;;;;;-2.38;79.51;98975.69;8390005;28;20395;-76
2022/11/19 19:12:22;;;;;;;57.70;22.48;;;;;;;-2.47;79.85;98974.44;8392339;28;20120;-76
2022/11/19 19:16:24;;;;;;;65.68;24.73;;;;;;;-2.47;79.87;98969.16;8377302;28;20048;-76
2022/11/19 19:20:25;;;;;;;62.33;23.98;;;;;;;-2.52;80.24;98982.25;8395879;28;20048;-76
2022/11/19 19:24:26;;;;;;;65.85;25.55;;;;;;;-2.55;80.25;98982.72;8362227;28;20056;-76
2022/11/19 19:28:27;;;;;;;71.38;25.90;;;;;;;-2.60;80.13;98972.00;8388961;28;20055;-77
2022/11/19 19:32:29;;;;;;;86.22;29.58;;;;;;;-2.59;80.38;98977.03;8397408;28;20469;-77
2022/11/19 19:36:29;;;;;;;59.70;21.73;;;;;;;-2.67;80.84;98979.22;8399163;28;20895;-76
2022/11/19 19:40:31;;;;;;;59.70;22.60;;;;;;;-2.68;80.83;98980.25;8427264;28;20055;-76
2022/11/19 19:44:32;;;;;;;65.82;25.50;;;;;;;-2.72;81.08;98982.53;8419773;28;20081;-76
2022/11/19 19:48:34;;;;;;;64.90;26.90;;;;;;;-2.64;80.98;98989.31;8395509;28;20062;-77
2022/11/19 19:52:35;;;;;;;68.13;25.23;;;;;;;-2.63;81.10;98980.38;8424301;28;20112;-76
2022/11/19 19:56:37;;;;;;;63.58;23.88;;;;;;;-2.65;81.14;98977.16;8421262;28;20067;-76
2022/11/19 20:00:38;;;;;;;67.65;24.70;;;;;;;-2.65;81.35;98971.88;8363762;28;20072;-77